Time;durP1;ratioP1;P1;durP2;ratioP2;P2;SDS_P1;SDS_P2;PMS_P1;PMS_P2;Temp;Humidity;BMP_temperature;BMP_pressure;BME280_temperature;BME280_humidity;BME280_pressure;Samples;Min_cycle;Max_cycle;Signal;HPM_P1;HPM_P2
2021/08/18 00:01:34;;;;;;;28.05;22.88;;;16.40;90.80;;;;;;5038036;28;20042;-73
2021/08/18 00:04:01;;;;;;;26.65;22.60;;;16.40;90.80;;;;;;5033276;28;20475;-74
2021/08/18 00:06:27;;;;;;;28.13;22.60;;;16.40;90.80;;;;;;5025174;28;20026;-75
2021/08/18 00:08:53;;;;;;;25.98;21.27;;;16.40;90.70;;;;;;5031099;28;20044;-72
2021/08/18 00:11:18;;;;;;;25.58;21.10;;;16.30;90.70;;;;;;5044741;28;20116;-73
2021/08/18 00:13:44;;;;;;;23.70;20.40;;;16.40;90.60;;;;;;5030134;28;20033;-75
2021/08/18 00:16:10;;;;;;;25.67;19.95;;;16.40;90.70;;;;;;5038900;28;20037;-73
2021/08/18 00:18:36;;;;;;;24.05;21.42;;;16.40;90.60;;;;;;5042688;28;20124;-74
2021/08/18 00:21:01;;;;;;;23.17;20.55;;;16.30;90.70;;;;;;5046118;28;20124;-74
2021/08/18 00:23:27;;;;;;;23.30;20.35;;;16.40;90.60;;;;;;5035106;28;20103;-74
2021/08/18 00:25:54;;;;;;;24.98;21.17;;;16.30;90.60;;;;;;5033127;28;20041;-74
2021/08/18 00:28:20;;;;;;;29.02;21.77;;;16.40;90.60;;;;;;5043256;28;20106;-74
2021/08/18 00:30:46;;;;;;;26.27;22.45;;;16.40;90.60;;;;;;5035976;28;20046;-74
2021/08/18 00:33:12;;;;;;;27.67;23.45;;;16.40;90.70;;;;;;5043649;28;20050;-74
2021/08/18 00:35:37;;;;;;;27.45;22.27;;;16.30;90.70;;;;;;5030344;28;20031;-73
2021/08/18 00:38:03;;;;;;;24.13;20.20;;;16.30;90.70;;;;;;5030176;28;20033;-73
2021/08/18 00:40:29;;;;;;;25.48;22.42;;;16.40;90.70;;;;;;5030550;28;20036;-76
2021/08/18 00:42:55;;;;;;;25.20;22.38;;;16.30;90.70;;;;;;5043700;28;20037;-77
2021/08/18 00:45:21;;;;;;;25.02;22.38;;;16.40;90.80;;;;;;5039717;28;20067;-73
2021/08/18 00:47:51;;;;;;;24.35;21.75;;;16.40;90.80;;;;;;5032791;28;20484;-73
2021/08/18 00:50:23;;;;;;;27.77;23.27;;;16.40;90.90;;;;;;5032256;28;20025;-75
2021/08/18 00:52:50;;;;;;;26.65;22.23;;;16.30;90.90;;;;;;5024838;28;20040;-74
2021/08/18 00:55:18;;;;;;;28.42;22.98;;;16.40;90.80;;;;;;5030692;28;20026;-73
2021/08/18 00:57:45;;;;;;;25.58;22.50;;;16.40;90.90;;;;;;5042979;28;20473;-73
2021/08/18 01:00:13;;;;;;;24.52;21.70;;;16.40;90.80;;;;;;5029393;28;20057;-73
2021/08/18 01:02:43;;;;;;;29.42;23.17;;;16.40;90.80;;;;;;5014663;28;20128;-76
2021/08/18 01:05:11;;;;;;;24.40;21.42;;;16.40;90.80;;;;;;5024631;28;20108;-74
2021/08/18 01:07:38;;;;;;;26.42;21.58;;;16.40;90.70;;;;;;5027120;28;20033;-74
2021/08/18 01:10:05;;;;;;;26.95;22.38;;;16.40;90.70;;;;;;5034555;28;20037;-72
2021/08/18 01:12:33;;;;;;;28.92;23.50;;;16.30;90.70;;;;;;5044908;28;20026;-75
2021/08/18 01:15:00;;;;;;;30.15;23.90;;;16.40;90.60;;;;;;5042221;28;20021;-72
2021/08/18 01:17:33;;;;;;;31.17;25.27;;;16.40;90.70;;;;;;5040708;28;20081;-73
2021/08/18 01:20:01;;;;;;;28.48;22.85;;;16.30;90.70;;;;;;5040136;28;20022;-73
2021/08/18 01:22:27;;;;;;;27.80;23.67;;;16.30;90.70;;;;;;5028803;28;20034;-73
2021/08/18 01:24:53;;;;;;;26.90;23.60;;;16.40;90.80;;;;;;5034917;28;20029;-73
2021/08/18 01:27:19;;;;;;;31.73;24.08;;;16.40;90.70;;;;;;5021418;28;20068;-72
2021/08/18 01:29:44;;;;;;;28.00;23.20;;;16.40;90.70;;;;;;5029783;28;20034;-73
2021/08/18 01:32:10;;;;;;;30.80;23.55;;;16.40;90.80;;;;;;5037495;28;20021;-73
2021/08/18 01:34:36;;;;;;;27.02;23.25;;;16.30;90.80;;;;;;5033742;28;20041;-75
2021/08/18 01:37:03;;;;;;;26.77;23.77;;;16.40;90.80;;;;;;5027672;28;20069;-73
2021/08/18 01:39:29;;;;;;;26.63;22.67;;;16.40;90.80;;;;;;5029647;28;20036;-76
2021/08/18 01:41:55;;;;;;;29.38;22.70;;;16.40;90.80;;;;;;5031885;28;20633;-74
2021/08/18 01:44:21;;;;;;;30.38;22.92;;;16.40;90.70;;;;;;5023415;28;20056;-76
2021/08/18 01:46:47;;;;;;;25.77;21.20;;;16.40;90.70;;;;;;5024611;28;20033;-77
2021/08/18 01:49:12;;;;;;;24.35;20.67;;;16.40;90.70;;;;;;5021137;28;20120;-74
2021/08/18 01:51:38;;;;;;;28.80;21.17;;;16.40;90.70;;;;;;5025628;28;20445;-73
2021/08/18 01:54:04;;;;;;;25.40;21.13;;;16.50;90.50;;;;;;5027099;28;20399;-75
2021/08/18 01:56:29;;;;;;;26.95;21.60;;;16.50;90.30;;;;;;5011809;28;20112;-75
2021/08/18 01:58:55;;;;;;;24.65;20.30;;;16.50;90.30;;;;;;5021643;28;20060;-75
2021/08/18 02:01:22;;;;;;;27.40;20.90;;;16.50;90.30;;;;;;5024719;28;20111;-75
2021/08/18 02:03:50;;;;;;;25.38;20.63;;;16.50;90.30;;;;;;5025462;28;20036;-76
2021/08/18 02:06:16;;;;;;;27.80;21.02;;;16.50;90.20;;;;;;5035073;28;20063;-74
2021/08/18 02:08:42;;;;;;;23.75;19.70;;;16.50;90.20;;;;;;5034307;28;20520;-74
2021/08/18 02:11:08;;;;;;;25.55;19.77;;;16.40;90.30;;;;;;5039996;28;20128;-73
2021/08/18 02:13:34;;;;;;;23.95;20.80;;;16.40;90.40;;;;;;5038196;28;20406;-74
2021/08/18 02:16:01;;;;;;;30.67;21.35;;;16.40;90.40;;;;;;5029279;28;20025;-74
2021/08/18 02:18:27;;;;;;;26.88;19.60;;;16.40;90.30;;;;;;5030487;28;20066;-74
2021/08/18 02:20:52;;;;;;;23.85;20.60;;;16.40;90.30;;;;;;5028506;28;20034;-73
2021/08/18 02:23:18;;;;;;;24.45;19.95;;;16.40;90.50;;;;;;5034130;28;20026;-73
2021/08/18 02:25:44;;;;;;;23.77;19.77;;;16.40;90.50;;;;;;5026260;28;20029;-74
2021/08/18 02:28:10;;;;;;;23.77;20.15;;;16.40;90.50;;;;;;5033191;28;20064;-73
2021/08/18 02:30:36;;;;;;;24.95;20.95;;;16.40;90.50;;;;;;5044516;28;20421;-73
2021/08/18 02:33:03;;;;;;;28.25;21.15;;;16.40;90.40;;;;;;5041784;28;20484;-73
2021/08/18 02:35:29;;;;;;;27.55;20.35;;;16.40;90.50;;;;;;5035898;28;20033;-73
2021/08/18 02:37:57;;;;;;;26.35;20.70;;;16.40;90.50;;;;;;5032079;28;20029;-74
2021/08/18 02:40:23;;;;;;;24.08;21.02;;;16.40;90.50;;;;;;5041167;28;20047;-74
2021/08/18 02:42:51;;;;;;;25.98;19.88;;;16.40;90.50;;;;;;5035963;28;20128;-74
2021/08/18 02:45:18;;;;;;;25.15;20.85;;;16.40;90.50;;;;;;5045907;28;20029;-74
2021/08/18 02:47:44;;;;;;;27.95;21.25;;;16.30;90.50;;;;;;5025362;28;20068;-73
2021/08/18 02:50:12;;;;;;;27.60;22.40;;;16.30;90.60;;;;;;5029781;28;20696;-74
2021/08/18 02:52:38;;;;;;;29.50;21.83;;;16.40;90.60;;;;;;5030287;28;20030;-74
2021/08/18 02:55:04;;;;;;;28.20;21.63;;;16.40;90.60;;;;;;5039368;28;20075;-74
2021/08/18 02:57:30;;;;;;;28.52;21.83;;;16.30;90.50;;;;;;5034811;28;20029;-74
2021/08/18 02:59:56;;;;;;;28.10;22.45;;;16.30;90.50;;;;;;5031744;28;20491;-74
2021/08/18 03:02:25;;;;;;;26.35;21.50;;;16.30;90.60;;;;;;5027758;28;20044;-73
2021/08/18 03:04:51;;;;;;;26.50;22.23;;;16.40;90.60;;;;;;5028351;28;20025;-79
2021/08/18 03:07:17;;;;;;;25.50;21.30;;;16.40;90.60;;;;;;5033723;28;20094;-73
2021/08/18 03:09:43;;;;;;;30.52;22.45;;;16.40;90.50;;;;;;5035113;28;20038;-77
2021/08/18 03:12:09;;;;;;;27.13;21.42;;;16.40;90.40;;;;;;5033450;28;20033;-73
2021/08/18 03:14:35;;;;;;;24.00;20.20;;;16.40;90.50;;;;;;5042295;28;20033;-73
2021/08/18 03:17:01;;;;;;;29.40;21.75;;;16.40;90.50;;;;;;5032872;28;20033;-75
2021/08/18 03:19:26;;;;;;;25.90;21.13;;;16.30;90.50;;;;;;5044567;28;20399;-74
2021/08/18 03:21:53;;;;;;;23.90;20.05;;;16.30;90.50;;;;;;5034071;28;20033;-80
2021/08/18 03:24:19;;;;;;;24.80;21.17;;;16.30;90.50;;;;;;5030909;28;20034;-73
2021/08/18 03:26:44;;;;;;;26.95;20.25;;;16.40;90.50;;;;;;5027003;28;20088;-74
2021/08/18 03:29:10;;;;;;;24.83;19.50;;;16.30;90.50;;;;;;5031253;28;20042;-73
2021/08/18 03:31:36;;;;;;;26.77;20.55;;;16.30;90.50;;;;;;5035763;28;20037;-73
2021/08/18 03:34:02;;;;;;;29.92;20.55;;;16.40;90.60;;;;;;5031773;28;20813;-74
2021/08/18 03:36:28;;;;;;;28.17;21.35;;;16.40;90.50;;;;;;5040311;28;20038;-73
2021/08/18 03:38:53;;;;;;;28.92;21.55;;;16.40;90.50;;;;;;5042815;28;20037;-80
2021/08/18 03:41:19;;;;;;;25.92;20.80;;;16.40;90.60;;;;;;5028115;28;20024;-75
2021/08/18 03:43:45;;;;;;;23.73;20.77;;;16.30;90.60;;;;;;5030997;28;20396;-73
2021/08/18 03:46:11;;;;;;;30.27;22.65;;;16.40;90.50;;;;;;5039660;28;20532;-74
2021/08/18 03:48:37;;;;;;;25.05;21.35;;;16.30;90.50;;;;;;5045333;28;20063;-74
2021/08/18 03:51:03;;;;;;;29.35;23.10;;;16.40;90.50;;;;;;5043887;28;20394;-73
2021/08/18 03:53:29;;;;;;;28.45;21.42;;;16.40;90.60;;;;;;5037214;28;20495;-73
2021/08/18 03:55:54;;;;;;;29.00;24.10;;;16.40;90.60;;;;;;5040332;28;20033;-80
2021/08/18 03:58:20;;;;;;;28.85;24.20;;;16.30;90.60;;;;;;5043781;28;20102;-73
2021/08/18 04:00:46;;;;;;;29.08;22.90;;;16.30;90.60;;;;;;5029478;28;20050;-73
2021/08/18 04:03:12;;;;;;;28.90;22.05;;;16.40;90.70;;;;;;5040417;28;20041;-78
2021/08/18 04:05:37;;;;;;;28.55;23.67;;;16.30;90.60;;;;;;5028788;28;20473;-73
2021/08/18 04:08:07;;;;;;;28.30;23.83;;;16.40;90.60;;;;;;5028504;28;20083;-73
2021/08/18 04:10:32;;;;;;;28.88;21.80;;;16.40;90.60;;;;;;5042229;28;20102;-75
2021/08/18 04:12:59;;;;;;;29.75;23.52;;;16.40;90.70;;;;;;5028874;28;20038;-73
2021/08/18 04:15:30;;;;;;;28.92;22.75;;;16.30;90.70;;;;;;5036782;28;20033;-73
2021/08/18 04:17:56;;;;;;;27.15;22.50;;;16.30;90.60;;;;;;5029413;28;20520;-76
2021/08/18 04:20:22;;;;;;;30.00;23.60;;;16.40;90.60;;;;;;5042279;28;20035;-74
2021/08/18 04:22:48;;;;;;;31.40;22.50;;;16.40;90.70;;;;;;5039183;28;20037;-73
2021/08/18 04:25:16;;;;;;;26.35;21.33;;;16.40;90.60;;;;;;5032302;28;20041;-73
2021/08/18 04:27:42;;;;;;;27.63;21.63;;;16.30;90.70;;;;;;5021059;28;20056;-73
2021/08/18 04:30:09;;;;;;;28.38;23.10;;;16.30;90.70;;;;;;5030302;28;20050;-73
2021/08/18 04:32:35;;;;;;;27.85;23.30;;;16.30;90.70;;;;;;5033672;28;20101;-73
2021/08/18 04:35:01;;;;;;;27.40;22.73;;;16.30;90.80;;;;;;5036606;28;20025;-73
2021/08/18 04:37:27;;;;;;;29.05;24.05;;;16.30;90.80;;;;;;5042460;28;20473;-72
2021/08/18 04:39:53;;;;;;;27.05;22.40;;;16.40;90.80;;;;;;5035543;28;20115;-73
2021/08/18 04:42:18;;;;;;;30.55;23.33;;;16.40;90.70;;;;;;5052224;28;20388;-73
2021/08/18 04:44:44;;;;;;;27.50;22.20;;;16.40;90.80;;;;;;5039352;28;20102;-73
2021/08/18 04:47:10;;;;;;;27.70;21.85;;;16.40;90.60;;;;;;5034799;28;20030;-73
2021/08/18 04:49:35;;;;;;;28.45;22.92;;;16.40;90.60;;;;;;5031783;28;20061;-73
2021/08/18 04:52:01;;;;;;;28.83;22.88;;;16.40;90.50;;;;;;5030792;28;20428;-73
2021/08/18 04:54:27;;;;;;;25.80;22.63;;;16.40;90.60;;;;;;5039102;28;20495;-73
2021/08/18 04:56:52;;;;;;;31.63;23.27;;;16.40;90.60;;;;;;5052313;28;20388;-73
2021/08/18 04:59:18;;;;;;;30.05;23.63;;;16.40;90.70;;;;;;5036075;28;20037;-72
2021/08/18 05:01:44;;;;;;;26.25;22.83;;;16.40;90.70;;;;;;5032233;28;20034;-72
2021/08/18 05:04:10;;;;;;;27.52;22.85;;;16.40;90.70;;;;;;5039398;28;20029;-73
2021/08/18 05:06:35;;;;;;;26.08;21.90;;;16.40;90.70;;;;;;5036627;28;20432;-73
2021/08/18 05:09:01;;;;;;;26.75;22.55;;;16.30;90.80;;;;;;5030154;28;20543;-79
2021/08/18 05:11:27;;;;;;;31.00;22.88;;;16.40;90.80;;;;;;5032676;28;20534;-73
2021/08/18 05:13:53;;;;;;;27.00;22.27;;;16.40;90.80;;;;;;5049226;28;20055;-74
2021/08/18 05:16:18;;;;;;;25.27;21.77;;;16.40;90.70;;;;;;5033141;28;20455;-73
2021/08/18 05:18:44;;;;;;;31.05;22.10;;;16.40;90.80;;;;;;5041148;28;20057;-73
2021/08/18 05:21:10;;;;;;;28.05;21.92;;;16.40;90.70;;;;;;5031857;28;20030;-76
2021/08/18 05:23:35;;;;;;;26.02;19.52;;;16.40;90.70;;;;;;5035608;28;20052;-73
2021/08/18 05:26:01;;;;;;;27.67;22.27;;;16.40;90.70;;;;;;5043895;28;20036;-73
2021/08/18 05:28:27;;;;;;;27.05;22.48;;;16.40;90.70;;;;;;5051437;28;20055;-73
2021/08/18 05:30:53;;;;;;;25.70;21.75;;;16.50;90.70;;;;;;5035358;28;20029;-74
2021/08/18 05:33:18;;;;;;;24.50;20.23;;;16.50;90.60;;;;;;5020939;28;20687;-74
2021/08/18 05:35:44;;;;;;;30.67;21.48;;;16.40;90.60;;;;;;5031779;28;20043;-73
2021/08/18 05:38:10;;;;;;;25.00;20.83;;;16.50;90.40;;;;;;5038988;28;20071;-73
2021/08/18 05:40:36;;;;;;;27.48;21.23;;;16.50;90.50;;;;;;5034614;28;20104;-71
2021/08/18 05:43:01;;;;;;;27.10;21.38;;;16.50;90.40;;;;;;5039588;28;20550;-72
2021/08/18 05:45:27;;;;;;;26.48;21.20;;;16.60;90.30;;;;;;5031675;28;20453;-72
2021/08/18 05:47:53;;;;;;;24.45;20.55;;;16.60;90.20;;;;;;5042412;28;20140;-76
2021/08/18 05:50:18;;;;;;;27.08;21.67;;;16.60;90.00;;;;;;5032305;28;20494;-72
2021/08/18 05:52:44;;;;;;;26.48;21.52;;;16.60;90.00;;;;;;5031384;28;20052;-71
2021/08/18 05:55:10;;;;;;;28.92;22.92;;;16.70;90.00;;;;;;5028448;28;20044;-71
2021/08/18 05:57:36;;;;;;;29.60;24.20;;;16.70;90.00;;;;;;5044415;28;20100;-71
2021/08/18 06:00:04;;;;;;;31.75;24.75;;;16.80;90.00;;;;;;5030655;28;20469;-75
2021/08/18 06:02:30;;;;;;;29.27;24.33;;;16.80;89.80;;;;;;5018309;28;20037;-71
2021/08/18 06:04:55;;;;;;;31.70;25.45;;;16.80;89.60;;;;;;5044122;28;20075;-74
2021/08/18 06:07:21;;;;;;;32.33;24.35;;;16.80;89.60;;;;;;5035541;28;20033;-72
2021/08/18 06:09:47;;;;;;;31.70;23.65;;;16.90;89.40;;;;;;5024241;28;20433;-72
2021/08/18 06:12:12;;;;;;;29.38;24.10;;;16.90;89.20;;;;;;5042410;28;20066;-71
2021/08/18 06:14:38;;;;;;;27.38;21.50;;;16.90;89.30;;;;;;5028438;28;20038;-71
2021/08/18 06:17:04;;;;;;;24.80;19.50;;;17.00;89.20;;;;;;5032095;28;20083;-71
2021/08/18 06:19:30;;;;;;;27.02;20.52;;;17.10;89.00;;;;;;5030845;28;20048;-72
2021/08/18 06:21:58;;;;;;;25.60;20.95;;;17.00;88.70;;;;;;5041004;28;20044;-71
2021/08/18 06:24:29;;;;;;;23.35;18.55;;;17.10;88.70;;;;;;5037495;28;20117;-72
2021/08/18 06:26:57;;;;;;;24.52;18.75;;;17.10;88.40;;;;;;5047632;28;20112;-74
2021/08/18 06:29:24;;;;;;;23.38;18.05;;;17.10;88.20;;;;;;5045541;28;20283;-72
2021/08/18 06:31:52;;;;;;;21.80;18.17;;;17.10;88.20;;;;;;5035981;28;20625;-72
2021/08/18 06:34:18;;;;;;;21.70;17.55;;;17.10;87.80;;;;;;5042577;28;20116;-72
2021/08/18 06:36:45;;;;;;;23.58;17.30;;;17.10;88.00;;;;;;5029431;28;20108;-72
2021/08/18 06:39:11;;;;;;;22.80;16.65;;;17.20;87.90;;;;;;5030286;28;20029;-72
2021/08/18 06:41:36;;;;;;;21.63;17.25;;;17.20;87.80;;;;;;5036784;28;20034;-72
2021/08/18 06:44:02;;;;;;;22.67;17.13;;;17.20;87.70;;;;;;5034056;28;20055;-74
2021/08/18 06:46:28;;;;;;;20.67;16.23;;;17.20;87.80;;;;;;5029868;28;20034;-72
2021/08/18 06:48:53;;;;;;;21.30;17.17;;;17.30;87.70;;;;;;5043337;28;20044;-73
2021/08/18 06:51:19;;;;;;;19.73;16.00;;;17.20;87.50;;;;;;5035817;28;20473;-73
2021/08/18 06:53:45;;;;;;;21.33;16.40;;;17.20;87.60;;;;;;5036720;28;20108;-72
2021/08/18 06:56:11;;;;;;;21.98;16.52;;;17.20;87.60;;;;;;5029629;28;20104;-72
2021/08/18 06:58:37;;;;;;;19.58;15.65;;;17.20;87.50;;;;;;5044578;28;20040;-72
2021/08/18 07:01:04;;;;;;;20.48;16.30;;;17.30;87.60;;;;;;5032004;28;20037;-72
2021/08/18 07:03:30;;;;;;;22.65;16.10;;;17.30;87.50;;;;;;5029834;28;20064;-73
2021/08/18 07:05:55;;;;;;;21.80;16.48;;;17.30;87.30;;;;;;5039120;28;20040;-72
2021/08/18 07:08:21;;;;;;;24.90;16.42;;;17.40;87.10;;;;;;5033580;28;20038;-72
2021/08/18 07:10:47;;;;;;;21.15;16.65;;;17.40;87.00;;;;;;5037885;28;20033;-72
2021/08/18 07:13:13;;;;;;;21.20;15.95;;;17.50;87.00;;;;;;5030810;28;20025;-73
2021/08/18 07:15:38;;;;;;;18.35;14.77;;;17.60;86.80;;;;;;5036160;28;20026;-72
2021/08/18 07:18:04;;;;;;;21.65;15.90;;;17.60;86.50;;;;;;5030992;28;20387;-72
2021/08/18 07:20:30;;;;;;;20.80;15.05;;;17.60;86.60;;;;;;5038296;28;20030;-72
2021/08/18 07:22:56;;;;;;;19.55;15.93;;;17.60;86.60;;;;;;5027920;28;20461;-72
2021/08/18 07:25:22;;;;;;;20.13;15.18;;;17.60;86.60;;;;;;5028314;28;20469;-72
2021/08/18 07:27:47;;;;;;;19.08;14.55;;;17.80;86.10;;;;;;5036442;28;20041;-75
2021/08/18 07:30:13;;;;;;;16.45;13.27;;;17.90;85.70;;;;;;5047826;28;20033;-73
2021/08/18 07:32:39;;;;;;;18.55;14.65;;;18.00;85.20;;;;;;5043084;28;20037;-72
2021/08/18 07:35:06;;;;;;;22.45;14.10;;;18.10;85.20;;;;;;5028043;28;20116;-75
2021/08/18 07:37:32;;;;;;;20.70;13.77;;;18.10;85.00;;;;;;5033525;28;20112;-72
2021/08/18 07:39:59;;;;;;;21.42;13.07;;;18.00;84.40;;;;;;5037469;28;20253;-72
2021/08/18 07:42:24;;;;;;;18.40;14.18;;;18.00;84.40;;;;;;5025990;28;20041;-72
2021/08/18 07:44:51;;;;;;;19.00;13.75;;;18.00;83.90;;;;;;5033857;28;20112;-72
2021/08/18 07:47:17;;;;;;;19.63;14.30;;;18.00;84.00;;;;;;5035971;28;20029;-74
2021/08/18 07:49:42;;;;;;;20.90;13.88;;;17.90;84.10;;;;;;5049496;28;20041;-72
2021/08/18 07:52:08;;;;;;;19.60;13.57;;;17.90;84.20;;;;;;5033072;28;20034;-78
2021/08/18 07:54:34;;;;;;;16.67;14.00;;;18.00;84.00;;;;;;5037396;28;20068;-72
2021/08/18 07:57:00;;;;;;;19.60;14.88;;;18.00;84.00;;;;;;5046773;28;20029;-72
2021/08/18 07:59:26;;;;;;;17.85;14.13;;;18.10;84.00;;;;;;5040918;28;20478;-73
2021/08/18 08:01:52;;;;;;;17.67;13.57;;;18.20;83.60;;;;;;5029436;28;20052;-74
2021/08/18 08:04:18;;;;;;;18.92;13.68;;;18.20;83.50;;;;;;5029283;28;20103;-72
2021/08/18 08:06:45;;;;;;;17.90;14.35;;;18.30;83.70;;;;;;5042415;28;20037;-72
2021/08/18 08:09:11;;;;;;;19.15;15.75;;;18.30;83.60;;;;;;5032153;28;20522;-73
2021/08/18 08:11:37;;;;;;;20.83;16.73;;;18.40;83.40;;;;;;5033518;28;20029;-72
2021/08/18 08:14:02;;;;;;;23.00;17.38;;;18.40;83.20;;;;;;5040139;28;20124;-73
2021/08/18 08:16:28;;;;;;;25.38;17.75;;;18.50;82.70;;;;;;5034618;28;20128;-72
2021/08/18 08:18:54;;;;;;;21.38;17.38;;;18.60;82.90;;;;;;5045194;28;20035;-75
2021/08/18 08:21:20;;;;;;;22.80;18.80;;;18.60;83.00;;;;;;5049115;28;20025;-73
2021/08/18 08:23:46;;;;;;;23.35;18.42;;;18.60;82.80;;;;;;5037312;28;20036;-72
2021/08/18 08:26:11;;;;;;;20.85;17.50;;;18.60;82.40;;;;;;5037848;28;20400;-72
2021/08/18 08:28:37;;;;;;;22.08;18.48;;;18.60;82.90;;;;;;5045826;28;20045;-73
2021/08/18 08:31:02;;;;;;;21.55;18.10;;;18.60;82.30;;;;;;5035793;28;20053;-73
2021/08/18 08:33:29;;;;;;;22.27;18.40;;;18.60;82.60;;;;;;5042153;28;20062;-72
2021/08/18 08:35:54;;;;;;;22.10;17.33;;;18.60;82.60;;;;;;5049829;28;20025;-72
2021/08/18 08:38:20;;;;;;;18.95;16.88;;;18.60;81.90;;;;;;5051956;28;20083;-73
2021/08/18 08:40:46;;;;;;;19.35;16.23;;;18.70;81.40;;;;;;5038306;28;20036;-73
2021/08/18 08:43:14;;;;;;;19.33;16.63;;;18.60;81.40;;;;;;5036551;28;20033;-72
2021/08/18 08:45:47;;;;;;;20.90;17.23;;;18.70;81.40;;;;;;5032562;28;20036;-72
2021/08/18 08:48:16;;;;;;;19.45;17.20;;;18.70;81.70;;;;;;5031963;28;20099;-72
2021/08/18 08:50:44;;;;;;;20.30;17.45;;;18.70;81.70;;;;;;5017448;28;20095;-72
2021/08/18 08:53:10;;;;;;;17.77;15.95;;;18.70;81.50;;;;;;5032200;28;20112;-72
2021/08/18 08:55:36;;;;;;;20.60;15.35;;;18.60;81.40;;;;;;5034969;28;20449;-73
2021/08/18 08:58:01;;;;;;;18.48;16.48;;;18.60;81.10;;;;;;5050818;28;20041;-71
2021/08/18 09:00:27;;;;;;;17.98;16.05;;;18.70;81.30;;;;;;5038913;28;20030;-74
2021/08/18 09:03:08;;;;;;;18.55;16.63;;;18.80;81.40;;;;;;5031401;28;20104;-72
2021/08/18 09:05:34;;;;;;;19.45;17.35;;;18.80;81.90;;;;;;5049227;28;20051;-73
2021/08/18 09:08:00;;;;;;;18.63;15.35;;;18.90;81.10;;;;;;5038084;28;20080;-72
2021/08/18 09:10:26;;;;;;;17.30;15.20;;;18.80;80.70;;;;;;5029826;28;20038;-72
2021/08/18 09:13:07;;;;;;;19.90;15.82;;;18.90;80.90;;;;;;5030602;28;20037;-77
2021/08/18 09:15:33;;;;;;;17.75;14.07;;;18.90;80.40;;;;;;5030951;28;20211;-73
2021/08/18 09:17:58;;;;;;;19.92;14.95;;;19.00;80.10;;;;;;5047463;28;20404;-72
2021/08/18 09:20:28;;;;;;;16.05;13.40;;;18.90;80.30;;;;;;5051257;28;20044;-72
2021/08/18 09:23:00;;;;;;;19.00;15.23;;;19.00;80.50;;;;;;5040768;28;20032;-71
2021/08/18 09:25:29;;;;;;;18.83;16.05;;;19.20;79.00;;;;;;5040366;28;20033;-71
2021/08/18 09:28:04;;;;;;;21.10;14.02;;;19.20;79.00;;;;;;5047435;28;20519;-71
2021/08/18 09:30:36;;;;;;;17.05;14.32;;;19.40;79.10;;;;;;5040524;28;20065;-75
2021/08/18 09:33:10;;;;;;;17.52;13.73;;;19.50;78.60;;;;;;5051348;28;20025;-71
2021/08/18 09:35:37;;;;;;;16.50;14.20;;;19.50;78.20;;;;;;5035114;28;20091;-72
2021/08/18 09:38:04;;;;;;;18.05;14.40;;;19.70;78.00;;;;;;5030019;28;20461;-70
2021/08/18 09:40:39;;;;;;;16.73;14.00;;;19.80;76.60;;;;;;5047638;28;20025;-72
2021/08/18 09:43:16;;;;;;;17.40;13.65;;;19.60;76.70;;;;;;5047256;28;20036;-75
2021/08/18 09:46:08;;;;;;;18.63;13.85;;;19.50;77.00;;;;;;5024849;28;20033;-72
2021/08/18 09:48:35;;;;;;;16.98;14.45;;;19.50;77.60;;;;;;5039168;28;20455;-72
2021/08/18 09:51:02;;;;;;;17.95;14.35;;;19.30;77.40;;;;;;5045917;28;20068;-73
2021/08/18 09:53:30;;;;;;;16.40;13.88;;;19.20;77.60;;;;;;5031295;28;20067;-72
2021/08/18 09:55:58;;;;;;;18.48;15.95;;;19.30;77.80;;;;;;5050054;28;20040;-71
2021/08/18 09:58:29;;;;;;;20.23;17.63;;;19.30;78.00;;;;;;5038068;28;20045;-72
2021/08/18 10:00:57;;;;;;;18.48;16.48;;;19.30;77.60;;;;;;5033568;28;20033;-73
2021/08/18 10:03:24;;;;;;;20.25;17.75;;;19.30;77.30;;;;;;5033622;28;20125;-72
2021/08/18 10:05:50;;;;;;;18.40;16.40;;;19.20;78.10;;;;;;5051126;28;20029;-73
2021/08/18 10:08:18;;;;;;;20.80;17.38;;;19.20;78.20;;;;;;5041162;28;20376;-76
2021/08/18 10:10:45;;;;;;;19.00;17.02;;;19.10;78.20;;;;;;5041206;28;20053;-73
2021/08/18 10:13:11;;;;;;;19.40;17.15;;;19.10;78.10;;;;;;5031097;28;20104;-71
2021/08/18 10:15:38;;;;;;;18.52;16.58;;;19.00;79.10;;;;;;5035044;28;20053;-74
2021/08/18 10:18:06;;;;;;;18.75;16.75;;;19.00;79.50;;;;;;5041436;28;20041;-72
2021/08/18 10:20:32;;;;;;;18.90;16.95;;;18.80;79.70;;;;;;5040257;28;20029;-72
2021/08/18 10:23:10;;;;;;;19.95;17.30;;;18.60;80.80;;;;;;5040954;28;20025;-75
2021/08/18 10:25:45;;;;;;;20.42;18.25;;;18.90;81.30;;;;;;5028449;28;20476;-71
2021/08/18 10:28:11;;;;;;;19.92;17.60;;;19.10;80.60;;;;;;5017374;28;20041;-71
2021/08/18 10:30:53;;;;;;;19.92;16.58;;;19.30;79.20;;;;;;5031202;28;20063;-72
2021/08/18 10:33:53;;;;;;;21.02;17.20;;;19.20;79.30;;;;;;5030113;28;20029;-72
2021/08/18 10:36:40;;;;;;;17.98;16.05;;;19.10;80.40;;;;;;5026588;28;20119;-71
2021/08/18 10:39:18;;;;;;;18.52;15.95;;;18.90;81.10;;;;;;5044933;28;20120;-72
2021/08/18 10:42:04;;;;;;;18.75;16.30;;;18.90;81.10;;;;;;5028008;28;20388;-72
2021/08/18 10:44:33;;;;;;;18.23;16.33;;;19.10;81.10;;;;;;5038281;28;20037;-72
2021/08/18 10:47:25;;;;;;;17.58;15.55;;;19.20;81.30;;;;;;5033877;28;20064;-73
2021/08/18 10:50:11;;;;;;;18.45;15.38;;;19.60;80.70;;;;;;5030745;28;20481;-72
2021/08/18 10:52:36;;;;;;;19.42;13.10;;;20.00;80.20;;;;;;5031626;28;20037;-74
2021/08/18 10:55:09;;;;;;;14.07;12.50;;;19.90;77.70;;;;;;5040310;28;20037;-72
2021/08/18 10:57:45;;;;;;;14.55;12.77;;;19.90;77.10;;;;;;5036456;28;20411;-72
2021/08/18 11:00:13;;;;;;;14.20;12.57;;;19.90;77.10;;;;;;5047549;28;20080;-72
2021/08/18 11:02:57;;;;;;;17.20;12.90;;;20.20;75.70;;;;;;5041388;28;20121;-72
2021/08/18 11:05:36;;;;;;;14.75;12.02;;;20.50;76.30;;;;;;5031238;28;20120;-72
2021/08/18 11:08:08;;;;;;;11.45;9.55;;;20.50;75.60;;;;;;5037640;28;20041;-72
2021/08/18 11:10:50;;;;;;;12.05;8.90;;;20.60;74.20;;;;;;5049397;28;20051;-72
2021/08/18 11:13:16;;;;;;;11.32;8.40;;;20.20;74.90;;;;;;5028718;28;20048;-72
2021/08/18 11:15:42;;;;;;;12.13;8.55;;;19.80;75.20;;;;;;5033074;28;20072;-72
2021/08/18 11:18:09;;;;;;;10.85;9.35;;;19.80;76.10;;;;;;5044938;28;20041;-72
2021/08/18 11:20:36;;;;;;;12.38;10.45;;;19.10;78.00;;;;;;5044225;28;20048;-72
2021/08/18 11:23:10;;;;;;;12.43;10.00;;;18.80;80.10;;;;;;5037328;28;20049;-72
2021/08/18 11:25:45;;;;;;;12.15;9.95;;;18.80;81.30;;;;;;5037518;28;20104;-72
2021/08/18 11:28:21;;;;;;;11.23;8.80;;;18.90;81.60;;;;;;5033060;28;20496;-72
2021/08/18 11:31:01;;;;;;;10.38;8.52;;;19.10;82.30;;;;;;5038192;28;20436;-72
2021/08/18 11:33:28;;;;;;;10.13;7.50;;;19.40;81.60;;;;;;5039942;28;20029;-74
2021/08/18 11:35:55;;;;;;;10.55;6.15;;;19.60;79.90;;;;;;5038552;28;20060;-74
2021/08/18 11:38:21;;;;;;;9.38;6.22;;;19.60;78.50;;;;;;5030014;28;20038;-76
2021/08/18 11:40:49;;;;;;;10.70;5.80;;;19.90;77.90;;;;;;5050837;28;20086;-72
2021/08/18 11:43:16;;;;;;;8.02;5.38;;;20.10;77.70;;;;;;5052067;28;20048;-76
2021/08/18 11:45:49;;;;;;;8.95;6.50;;;20.40;76.80;;;;;;5039815;28;20440;-72
2021/08/18 11:48:14;;;;;;;8.52;5.88;;;20.80;75.80;;;;;;5047129;28;20052;-72
2021/08/18 11:50:51;;;;;;;8.52;5.57;;;21.10;75.00;;;;;;5046997;28;20141;-71
2021/08/18 11:53:18;;;;;;;8.52;5.15;;;21.10;74.10;;;;;;5032124;28;20037;-72
2021/08/18 11:55:45;;;;;;;8.68;5.60;;;21.00;72.20;;;;;;5036330;28;20082;-71
2021/08/18 11:58:10;;;;;;;9.48;5.03;;;20.90;72.90;;;;;;5034571;28;20156;-71
2021/08/18 12:00:38;;;;;;;8.25;4.80;;;20.90;71.70;;;;;;5035471;28;20721;-71
2021/08/18 12:03:04;;;;;;;8.02;5.40;;;20.60;73.90;;;;;;5043938;28;20476;-72
2021/08/18 12:05:37;;;;;;;12.25;6.00;;;20.40;73.70;;;;;;5039878;28;20036;-72
2021/08/18 12:08:11;;;;;;;8.85;5.50;;;20.50;73.90;;;;;;5040674;28;20041;-71
2021/08/18 12:10:46;;;;;;;8.43;5.25;;;20.70;73.00;;;;;;5018892;28;20034;-74
2021/08/18 12:13:13;;;;;;;8.80;5.55;;;20.60;72.60;;;;;;5045931;28;20563;-72
2021/08/18 12:15:42;;;;;;;9.80;5.32;;;20.50;73.60;;;;;;5032836;28;20037;-70
2021/08/18 12:18:27;;;;;;;7.47;5.32;;;20.50;72.90;;;;;;5032191;28;20037;-70
2021/08/18 12:20:53;;;;;;;8.95;6.88;;;20.40;73.70;;;;;;5028637;28;20052;-71
2021/08/18 12:23:25;;;;;;;10.35;7.47;;;20.20;74.30;;;;;;5039416;28;20377;-71
2021/08/18 12:25:52;;;;;;;10.32;8.10;;;20.10;74.20;;;;;;5029688;28;20033;-74
2021/08/18 12:28:22;;;;;;;9.80;8.25;;;20.10;74.30;;;;;;5052153;28;20044;-71
2021/08/18 12:30:58;;;;;;;11.70;8.52;;;20.00;75.10;;;;;;5047168;28;20032;-71